In Rescue
 
Open Full Screen Window  High Contrast Mode
Wind Gusting 00 knots
06
October 25, 2021 3:00 PM EDT
Weather Information
Wind Direction
  140 °
Wind Speed
  06 kt (7 mph)
Wind Gust
  00 kt (0 mph)
Altimeter
29.66 in
Visibility
10 SM
Temperature
18° C
64° F
Dewpoint
12° C
54° F
Humidity
68%
1hr Rain Fall
00.01 in.
24hr Rain Fall
00.10 in.
Sky Condition
Clear
VFR

METAR KPOV 251900Z AUTO 14006KT 10SM CLR 18/12 A2966 RMK AO2 T01800119 PWINO P0001

FAA Disclaimer: The data displayed is for advisory purposes only and is not to be used for flight planning or operations.